createdAt,value
2022-11-29T00:02:16.980Z,7.14
2022-11-29T00:04:47.155Z,7.30
2022-11-29T00:07:16.767Z,6.83
2022-11-29T00:09:46.265Z,7.21
2022-11-29T00:12:19.784Z,7.31
2022-11-29T00:14:49.702Z,7.18
2022-11-29T00:17:19.426Z,7.27
2022-11-29T00:19:48.718Z,7.48
2022-11-29T00:22:18.286Z,7.46
2022-11-29T00:24:47.635Z,7.51
2022-11-29T00:27:17.478Z,7.53
2022-11-29T00:29:46.598Z,7.58
2022-11-29T00:32:16.164Z,7.53
2022-11-29T00:34:45.773Z,7.57
2022-11-29T00:37:14.953Z,7.64
2022-11-29T00:39:47.852Z,7.28
2022-11-29T00:42:17.586Z,7.67
2022-11-29T00:44:47.034Z,7.56
2022-11-29T00:47:16.765Z,7.62
2022-11-29T00:49:47.967Z,7.27
2022-11-29T00:52:17.144Z,7.62
2022-11-29T00:54:46.741Z,7.49
2022-11-29T00:57:15.913Z,7.68
2022-11-29T00:59:46.062Z,7.57
2022-11-29T01:02:15.057Z,7.39
2022-11-29T01:04:44.639Z,7.32
2022-11-29T01:07:14.637Z,6.93
2022-11-29T01:09:44.845Z,6.82
2022-11-29T01:12:14.286Z,6.97
2022-11-29T01:14:44.203Z,7.25
2022-11-29T01:17:19.063Z,7.16
2022-11-29T01:19:50.994Z,7.24
2022-11-29T01:22:18.316Z,7.06
2022-11-29T01:24:48.196Z,7.28
2022-11-29T01:27:18.447Z,7.41
2022-11-29T01:29:48.306Z,7.34
2022-11-29T01:32:18.438Z,7.08
2022-11-29T01:34:51.775Z,7.16
2022-11-29T01:37:20.980Z,7.33
2022-11-29T01:39:50.336Z,7.50
2022-11-29T01:42:20.520Z,6.37
2022-11-29T01:44:49.223Z,7.39
2022-11-29T01:47:19.056Z,7.49
2022-11-29T01:49:49.417Z,7.59
2022-11-29T01:52:28.096Z,7.33
2022-11-29T01:54:56.430Z,7.08
2022-11-29T01:57:22.615Z,7.57
2022-11-29T01:59:50.724Z,7.67
2022-11-29T02:02:31.655Z,7.69
2022-11-29T02:04:58.857Z,7.50
2022-11-29T02:07:25.291Z,7.53
2022-11-29T02:09:51.739Z,6.71
2022-11-29T02:12:39.424Z,7.28
2022-11-29T02:15:18.723Z,3.53
2022-11-29T02:18:06.146Z,7.42
2022-11-29T02:21:03.227Z,7.42
2022-11-29T02:23:53.669Z,7.54
2022-11-29T02:26:48.390Z,7.63
2022-11-29T02:29:59.138Z,7.74
2022-11-29T02:32:53.726Z,7.81
2022-11-29T02:35:37.670Z,7.84
2022-11-29T02:38:20.506Z,7.76
2022-11-29T02:41:14.304Z,7.83
2022-11-29T02:44:27.880Z,7.69
2022-11-29T02:47:15.651Z,7.48
2022-11-29T02:50:33.635Z,7.80
2022-11-29T02:53:12.553Z,7.75
2022-11-29T02:56:08.374Z,7.64
2022-11-29T02:58:51.086Z,7.02
2022-11-29T03:01:31.157Z,7.84
2022-11-29T03:04:26.853Z,7.82
2022-11-29T03:07:24.734Z,7.82
2022-11-29T03:10:05.517Z,7.85
2022-11-29T03:12:31.534Z,7.88
2022-11-29T03:15:18.795Z,7.81
2022-11-29T03:18:30.562Z,7.79
2022-11-29T03:21:08.392Z,7.93
2022-11-29T03:23:44.369Z,7.92
2022-11-29T03:26:18.648Z,7.92
2022-11-29T03:29:06.858Z,7.93
2022-11-29T03:31:46.422Z,7.99
2022-11-29T03:34:29.371Z,7.99
2022-11-29T03:37:00.840Z,7.96
2022-11-29T03:39:37.526Z,7.88
2022-11-29T03:42:08.063Z,7.77
2022-11-29T03:45:04.505Z,6.91
2022-11-29T03:47:38.899Z,7.95
2022-11-29T03:50:12.398Z,8.00
2022-11-29T03:53:04.507Z,7.91
2022-11-29T03:56:20.718Z,7.96
2022-11-29T03:59:27.876Z,7.88
2022-11-29T04:02:31.660Z,7.95
2022-11-29T04:05:27.215Z,7.97
2022-11-29T04:08:06.483Z,8.05
2022-11-29T04:10:48.767Z,7.99
2022-11-29T04:13:45.517Z,8.03
2022-11-29T04:16:33.654Z,7.98
2022-11-29T04:19:08.571Z,7.95
2022-11-29T04:22:16.870Z,8.00
2022-11-29T04:25:16.436Z,7.99
2022-11-29T04:27:57.162Z,8.03
2022-11-29T04:30:35.577Z,8.03
2022-11-29T04:33:23.987Z,8.04
2022-11-29T04:36:12.843Z,7.95
2022-11-29T04:38:59.643Z,7.99
2022-11-29T04:41:35.996Z,8.03
2022-11-29T04:44:10.746Z,7.69
2022-11-29T04:46:59.850Z,7.95
2022-11-29T04:49:58.963Z,8.03
2022-11-29T04:52:50.056Z,8.04
2022-11-29T04:55:39.192Z,6.76
2022-11-29T04:58:16.349Z,8.04
2022-11-29T05:01:14.797Z,7.58
2022-11-29T05:04:13.445Z,8.04
2022-11-29T05:06:59.164Z,8.09
2022-11-29T05:10:19.456Z,8.07
2022-11-29T05:13:07.284Z,8.09
2022-11-29T05:15:56.026Z,8.11
2022-11-29T05:18:56.002Z,8.13
2022-11-29T05:21:46.892Z,8.17
2022-11-29T05:24:29.142Z,8.15
2022-11-29T05:27:11.450Z,7.97
2022-11-29T05:29:53.824Z,8.06
2022-11-29T05:32:38.199Z,8.07
2022-11-29T05:35:27.174Z,8.01
2022-11-29T05:38:04.725Z,7.86
2022-11-29T05:40:42.850Z,8.01
2022-11-29T05:43:37.676Z,8.00
2022-11-29T05:46:17.688Z,6.63
2022-11-29T05:49:02.964Z,8.06
2022-11-29T05:52:10.601Z,8.09
2022-11-29T05:55:10.772Z,7.93
2022-11-29T05:57:49.143Z,8.07
2022-11-29T06:00:19.779Z,8.05
2022-11-29T06:02:59.586Z,8.01
2022-11-29T06:05:42.144Z,7.06
2022-11-29T06:08:25.301Z,8.05
2022-11-29T06:10:56.967Z,8.08
2022-11-29T06:14:06.999Z,8.09
2022-11-29T06:16:42.991Z,7.82
2022-11-29T06:19:28.741Z,8.02
2022-11-29T06:22:40.498Z,8.10
2022-11-29T06:25:26.466Z,8.01
2022-11-29T06:28:13.407Z,8.06
2022-11-29T06:30:52.777Z,8.05
2022-11-29T06:33:24.553Z,8.12
2022-11-29T06:36:09.765Z,8.09
2022-11-29T06:38:45.218Z,8.09
2022-11-29T06:41:23.124Z,8.06
2022-11-29T06:43:49.572Z,8.09
2022-11-29T06:46:45.333Z,7.88
2022-11-29T06:49:28.501Z,7.93
2022-11-29T06:52:14.641Z,8.01
2022-11-29T06:55:14.778Z,7.93
2022-11-29T06:58:02.691Z,7.98
2022-11-29T07:00:58.540Z,8.04
2022-11-29T07:03:30.783Z,8.10
2022-11-29T07:05:57.574Z,7.71
2022-11-29T07:08:28.056Z,6.71
2022-11-29T07:10:58.875Z,8.12
2022-11-29T07:13:25.139Z,8.13
2022-11-29T07:15:57.218Z,8.00
2022-11-29T07:18:46.260Z,8.03
2022-11-29T07:21:18.249Z,8.07
2022-11-29T07:23:54.910Z,8.12
2022-11-29T07:26:49.419Z,8.16
2022-11-29T07:29:51.934Z,8.17
2022-11-29T07:32:40.594Z,7.04
2022-11-29T07:35:21.490Z,8.18
2022-11-29T07:38:16.732Z,8.18
2022-11-29T07:41:10.489Z,8.27
2022-11-29T07:43:46.083Z,8.28
2022-11-29T07:46:16.441Z,8.11
2022-11-29T07:48:47.179Z,8.23
2022-11-29T07:51:21.813Z,8.31
2022-11-29T07:53:51.871Z,8.30
2022-11-29T07:56:22.161Z,8.08
2022-11-29T07:58:52.172Z,8.25
2022-11-29T08:01:22.506Z,8.20
2022-11-29T08:03:52.400Z,8.21
2022-11-29T08:06:24.832Z,8.27
2022-11-29T08:09:00.210Z,8.31
2022-11-29T08:11:30.536Z,8.40
2022-11-29T08:14:01.764Z,8.42
2022-11-29T08:16:32.264Z,8.30
2022-11-29T08:19:02.774Z,8.33
2022-11-29T08:21:33.233Z,8.29
2022-11-29T08:24:03.582Z,8.24
2022-11-29T08:26:36.355Z,8.44
2022-11-29T08:29:06.184Z,8.28
2022-11-29T08:31:36.614Z,8.29
2022-11-29T08:34:07.211Z,8.30
2022-11-29T08:36:38.070Z,8.13
2022-11-29T08:39:09.736Z,7.26
2022-11-29T08:41:40.292Z,7.98
2022-11-29T08:44:12.368Z,8.20
2022-11-29T08:47:01.592Z,7.95
2022-11-29T08:49:31.407Z,8.02
2022-11-29T08:52:20.064Z,8.30
2022-11-29T08:54:50.441Z,8.09
2022-11-29T08:57:40.818Z,8.37
2022-11-29T09:00:09.214Z,8.25
2022-11-29T09:02:37.918Z,8.44
2022-11-29T09:05:07.875Z,8.53
2022-11-29T09:07:36.883Z,8.50
2022-11-29T09:10:07.608Z,7.56
2022-11-29T09:12:36.729Z,8.18
2022-11-29T09:15:07.406Z,8.56
2022-11-29T09:17:34.624Z,8.66
2022-11-29T09:20:05.398Z,7.12
2022-11-29T09:22:34.604Z,8.51
2022-11-29T09:25:04.609Z,8.53
2022-11-29T09:27:33.758Z,8.38
2022-11-29T09:30:03.710Z,8.27
2022-11-29T09:32:37.019Z,8.44
2022-11-29T09:35:06.464Z,8.48
2022-11-29T09:37:36.343Z,8.59
2022-11-29T09:40:05.906Z,8.71
2022-11-29T09:42:53.511Z,8.61
2022-11-29T09:45:26.550Z,8.70
2022-11-29T09:48:22.709Z,8.77
2022-11-29T09:50:54.065Z,8.80
2022-11-29T09:53:24.315Z,8.75
2022-11-29T09:56:15.880Z,8.79
2022-11-29T09:58:51.051Z,7.76
2022-11-29T10:01:27.192Z,8.38
2022-11-29T10:04:03.498Z,8.11
2022-11-29T10:06:40.550Z,8.23
2022-11-29T10:09:19.318Z,8.44
2022-11-29T10:12:23.192Z,8.42
2022-11-29T10:15:13.094Z,8.11
2022-11-29T10:18:05.112Z,8.16
2022-11-29T10:20:42.503Z,8.18
2022-11-29T10:23:26.155Z,8.07
2022-11-29T10:25:57.265Z,7.99
2022-11-29T10:28:32.818Z,7.82
2022-11-29T10:31:36.388Z,8.13
2022-11-29T10:34:14.188Z,8.06
2022-11-29T10:36:58.952Z,7.93
2022-11-29T10:39:46.617Z,7.84
2022-11-29T10:42:40.675Z,7.88
2022-11-29T10:45:27.783Z,8.22
2022-11-29T10:48:01.876Z,7.89
2022-11-29T10:50:36.058Z,7.88
2022-11-29T10:53:14.727Z,8.01
2022-11-29T10:55:54.870Z,8.05
2022-11-29T10:58:30.513Z,8.34
2022-11-29T11:01:06.180Z,8.02
2022-11-29T11:03:41.512Z,7.92
2022-11-29T11:06:19.063Z,8.19
2022-11-29T11:08:54.883Z,8.20
2022-11-29T11:11:32.009Z,8.32
2022-11-29T11:14:11.931Z,8.33
2022-11-29T11:16:42.259Z,8.20
2022-11-29T11:19:28.428Z,8.07
2022-11-29T11:22:00.929Z,8.28
2022-11-29T11:24:32.672Z,8.45
2022-11-29T11:26:59.789Z,8.36
2022-11-29T11:29:35.679Z,7.64
2022-11-29T11:32:02.253Z,8.11
2022-11-29T11:34:33.404Z,7.15
2022-11-29T11:37:24.508Z,8.09
2022-11-29T11:39:57.039Z,7.96
2022-11-29T11:42:37.221Z,7.49
2022-11-29T11:45:10.260Z,7.83
2022-11-29T11:47:41.952Z,8.06
2022-11-29T11:50:24.776Z,8.55
2022-11-29T11:53:03.755Z,8.52
2022-11-29T11:55:39.258Z,6.77
2022-11-29T11:58:12.288Z,8.34
2022-11-29T12:03:56.216Z,8.55
2022-11-29T12:06:48.382Z,8.72
2022-11-29T12:09:26.960Z,8.42
2022-11-29T12:12:10.251Z,8.41
2022-11-29T12:15:00.575Z,8.02
2022-11-29T12:17:36.645Z,8.73
2022-11-29T12:20:11.366Z,8.50
2022-11-29T12:23:07.232Z,8.78
2022-11-29T12:25:57.488Z,8.71
2022-11-29T12:28:31.354Z,8.83
2022-11-29T12:31:12.067Z,8.41
2022-11-29T12:33:54.729Z,8.80
2022-11-29T12:37:05.034Z,8.70
2022-11-29T12:39:56.525Z,8.97
2022-11-29T12:42:50.032Z,9.04
2022-11-29T12:45:33.086Z,8.63
2022-11-29T12:48:05.960Z,8.48
2022-11-29T12:50:39.951Z,8.63
2022-11-29T12:53:13.928Z,8.78
2022-11-29T12:56:05.452Z,8.85
2022-11-29T12:58:46.217Z,8.58
2022-11-29T13:01:16.613Z,8.91
2022-11-29T13:03:58.392Z,8.90
2022-11-29T13:07:10.263Z,8.99
2022-11-29T13:10:01.863Z,8.75
2022-11-29T13:12:45.763Z,8.25
2022-11-29T13:15:29.409Z,7.62
2022-11-29T13:18:03.853Z,8.77
2022-11-29T13:20:39.534Z,8.88
2022-11-29T13:23:46.138Z,8.91
2022-11-29T13:26:24.172Z,7.98
2022-11-29T13:28:52.666Z,8.49
2022-11-29T13:31:24.925Z,7.88
2022-11-29T13:34:19.545Z,8.61
2022-11-29T13:36:51.673Z,8.67
2022-11-29T13:39:58.667Z,8.88
2022-11-29T13:43:04.490Z,8.66
2022-11-29T13:45:41.909Z,8.62
2022-11-29T13:48:33.083Z,8.62
2022-11-29T13:51:27.448Z,8.90
2022-11-29T13:53:54.637Z,8.62
2022-11-29T13:56:28.898Z,8.74
2022-11-29T13:59:11.833Z,8.74
2022-11-29T14:01:47.050Z,8.49
2022-11-29T14:04:24.322Z,8.83
2022-11-29T14:07:21.819Z,8.87
2022-11-29T14:09:57.897Z,8.79
2022-11-29T14:12:41.313Z,8.89
2022-11-29T14:15:22.199Z,8.80
2022-11-29T14:17:52.533Z,8.52
2022-11-29T14:20:22.631Z,8.87
2022-11-29T14:23:05.040Z,9.08
2022-11-29T14:25:52.241Z,9.09
2022-11-29T14:28:23.562Z,8.57
2022-11-29T14:31:02.946Z,8.76
2022-11-29T14:34:06.268Z,8.93
2022-11-29T14:36:46.095Z,8.92
2022-11-29T14:39:30.073Z,8.67
2022-11-29T14:42:18.027Z,8.92
2022-11-29T14:44:53.021Z,9.02
2022-11-29T14:47:32.491Z,8.60
2022-11-29T14:50:06.932Z,8.68
2022-11-29T14:52:39.499Z,8.58
2022-11-29T14:55:16.058Z,8.59
2022-11-29T14:57:46.574Z,8.42
2022-11-29T15:00:27.817Z,8.28
2022-11-29T15:03:00.963Z,8.61
2022-11-29T15:05:33.327Z,7.23
2022-11-29T15:08:18.161Z,8.41
2022-11-29T15:11:00.336Z,8.63
2022-11-29T15:13:34.921Z,8.52
2022-11-29T15:16:27.967Z,8.48
2022-11-29T15:19:12.574Z,8.74
2022-11-29T15:21:54.611Z,8.87
2022-11-29T15:24:28.744Z,8.64
2022-11-29T15:27:03.592Z,8.95
2022-11-29T15:29:33.362Z,9.02
2022-11-29T15:32:04.958Z,9.02
2022-11-29T15:34:40.124Z,9.07
2022-11-29T15:37:30.212Z,8.13
2022-11-29T15:40:03.104Z,9.15
2022-11-29T15:42:59.349Z,9.12
2022-11-29T15:45:39.648Z,7.61
2022-11-29T15:48:21.859Z,9.12
2022-11-29T15:51:15.712Z,9.08
2022-11-29T15:54:11.717Z,9.09
2022-11-29T15:56:51.367Z,9.14
2022-11-29T15:59:40.634Z,9.09
2022-11-29T16:02:21.462Z,9.09
2022-11-29T16:04:55.401Z,9.04
2022-11-29T16:07:31.407Z,9.03
2022-11-29T16:10:16.452Z,8.89
2022-11-29T16:12:55.672Z,9.08
2022-11-29T16:15:27.152Z,9.13
2022-11-29T16:17:53.327Z,9.12
2022-11-29T16:20:24.364Z,9.13
2022-11-29T16:23:12.898Z,9.10
2022-11-29T16:26:04.952Z,9.12
2022-11-29T16:28:34.991Z,9.17
2022-11-29T16:31:05.511Z,9.17
2022-11-29T16:33:37.074Z,9.03
2022-11-29T16:36:25.852Z,9.10
2022-11-29T16:39:00.580Z,9.18
2022-11-29T16:41:36.763Z,9.14
2022-11-29T16:44:40.131Z,8.93
2022-11-29T16:47:15.645Z,8.88
2022-11-29T16:50:07.156Z,9.00
2022-11-29T16:52:37.895Z,4.76
2022-11-29T16:55:10.744Z,7.77
2022-11-29T16:57:40.586Z,9.10
2022-11-29T17:00:36.711Z,9.10
2022-11-29T17:03:08.533Z,7.54
2022-11-29T17:05:34.641Z,9.10
2022-11-29T17:08:02.079Z,8.93
2022-11-29T17:10:33.624Z,8.70
2022-11-29T17:13:03.770Z,9.04
2022-11-29T17:15:29.984Z,9.01
2022-11-29T17:17:56.039Z,8.90
2022-11-29T17:20:28.104Z,8.97
2022-11-29T17:22:54.192Z,9.02
2022-11-29T17:25:20.217Z,9.06
2022-11-29T17:27:46.259Z,9.06
2022-11-29T17:30:12.823Z,9.06
2022-11-29T17:32:39.966Z,9.07
2022-11-29T17:35:09.984Z,9.06
2022-11-29T17:37:39.757Z,9.07
2022-11-29T17:40:12.846Z,8.45
2022-11-29T17:42:40.949Z,6.30
2022-11-29T17:45:10.618Z,9.08
2022-11-29T17:47:40.355Z,9.06
2022-11-29T17:50:13.159Z,9.04
2022-11-29T17:52:43.167Z,8.17
2022-11-29T17:55:12.912Z,9.11
2022-11-29T17:57:42.772Z,9.11
2022-11-29T18:00:14.651Z,9.08
2022-11-29T18:02:42.539Z,9.09
2022-11-29T18:05:12.295Z,9.15
2022-11-29T18:07:57.122Z,9.20
2022-11-29T18:10:24.093Z,9.20
2022-11-29T18:12:50.132Z,9.21
2022-11-29T18:15:16.797Z,9.23
2022-11-29T18:17:47.060Z,9.10
2022-11-29T18:20:16.958Z,8.77
2022-11-29T18:22:46.350Z,9.14
2022-11-29T18:25:38.190Z,9.18
2022-11-29T18:28:02.130Z,9.14
2022-11-29T18:30:28.256Z,9.15
2022-11-29T18:32:56.055Z,9.18
2022-11-29T18:35:27.348Z,8.69
2022-11-29T18:40:41.732Z,9.23
2022-11-29T18:43:15.081Z,8.00
2022-11-29T18:45:41.237Z,9.19
2022-11-29T18:48:07.297Z,9.16
2022-11-29T18:50:33.434Z,9.17
2022-11-29T18:53:04.024Z,7.74
2022-11-29T18:55:30.228Z,9.17
2022-11-29T18:57:56.249Z,9.12
2022-11-29T19:00:22.513Z,9.14
2022-11-29T19:02:56.200Z,8.58
2022-11-29T19:05:22.286Z,9.21
2022-11-29T19:07:48.480Z,9.27
2022-11-29T19:10:14.646Z,9.15
2022-11-29T19:12:42.610Z,9.04
2022-11-29T19:15:12.872Z,9.10
2022-11-29T19:17:43.516Z,9.15
2022-11-29T19:20:11.964Z,8.91
2022-11-29T19:22:47.053Z,9.04
2022-11-29T19:25:14.930Z,8.87
2022-11-29T19:27:46.400Z,9.20
2022-11-29T19:30:15.475Z,8.05
2022-11-29T19:32:46.495Z,9.25
2022-11-29T19:35:15.125Z,9.27
2022-11-29T19:37:42.369Z,9.19
2022-11-29T19:40:12.614Z,9.27
2022-11-29T19:42:42.523Z,9.26
2022-11-29T19:45:18.004Z,9.23
2022-11-29T19:47:44.412Z,9.25
2022-11-29T19:50:19.452Z,9.23
2022-11-29T19:52:49.422Z,8.79
2022-11-29T19:55:18.689Z,8.99
2022-11-29T19:57:48.517Z,8.60
2022-11-29T20:00:18.578Z,9.26
2022-11-29T20:02:47.194Z,9.29
2022-11-29T20:05:16.876Z,9.24
2022-11-29T20:07:49.380Z,9.25
2022-11-29T20:10:19.818Z,9.23
2022-11-29T20:12:48.325Z,9.28
2022-11-29T20:15:18.214Z,8.51
2022-11-29T20:17:53.023Z,9.22
2022-11-29T20:20:19.803Z,9.27
2022-11-29T20:22:51.483Z,9.26
2022-11-29T20:25:18.238Z,9.30
2022-11-29T20:27:48.333Z,9.29
2022-11-29T20:30:17.748Z,8.93
2022-11-29T20:32:47.047Z,9.06
2022-11-29T20:35:19.211Z,9.20
2022-11-29T20:38:23.607Z,9.08
2022-11-29T20:41:02.922Z,9.01
2022-11-29T20:43:38.902Z,9.16
2022-11-29T20:46:05.876Z,9.11
2022-11-29T20:48:38.704Z,9.01
2022-11-29T20:51:09.998Z,8.65
2022-11-29T20:53:42.130Z,8.78
2022-11-29T20:56:09.596Z,7.53
2022-11-29T20:58:39.887Z,9.00
2022-11-29T21:01:09.943Z,9.08
2022-11-29T21:03:41.671Z,8.74
2022-11-29T21:06:07.775Z,9.15
2022-11-29T21:08:34.341Z,8.71
2022-11-29T21:11:05.239Z,8.94
2022-11-29T21:13:32.094Z,9.09
2022-11-29T21:15:58.684Z,8.96
2022-11-29T21:18:26.863Z,9.13
2022-11-29T21:21:04.416Z,9.10
2022-11-29T21:23:49.129Z,9.10
2022-11-29T21:26:20.367Z,9.10
2022-11-29T21:28:53.898Z,9.02
2022-11-29T21:31:20.223Z,9.09
2022-11-29T21:33:46.725Z,8.83
2022-11-29T21:36:12.963Z,8.96
2022-11-29T21:38:39.065Z,9.06
2022-11-29T21:41:05.303Z,8.96
2022-11-29T21:44:04.279Z,8.31
2022-11-29T21:46:17.553Z,8.75
2022-11-29T21:48:44.017Z,8.86
2022-11-29T21:51:10.750Z,8.85
2022-11-29T21:53:38.307Z,9.00
2022-11-29T21:56:06.783Z,9.08
2022-11-29T21:58:34.460Z,9.03
2022-11-29T22:01:07.750Z,9.07
2022-11-29T22:03:33.926Z,9.15
2022-11-29T22:06:05.119Z,8.81
2022-11-29T22:08:38.722Z,8.87
2022-11-29T22:11:10.003Z,9.04
2022-11-29T22:13:57.031Z,8.99
2022-11-29T22:16:23.305Z,8.92
2022-11-29T22:18:49.433Z,9.07
2022-11-29T22:21:15.486Z,9.16
2022-11-29T22:23:41.525Z,9.05
2022-11-29T22:26:07.796Z,8.89
2022-11-29T22:28:34.573Z,9.06
2022-11-29T22:31:11.066Z,9.01
2022-11-29T22:33:37.671Z,9.09
2022-11-29T22:36:08.007Z,9.15
2022-11-29T22:38:34.692Z,9.03
2022-11-29T22:41:03.164Z,9.21
2022-11-29T22:43:30.537Z,9.26
2022-11-29T22:46:17.623Z,9.33
2022-11-29T22:48:44.973Z,9.13
2022-11-29T22:51:13.403Z,9.31
2022-11-29T22:53:41.215Z,9.35
2022-11-29T22:56:09.106Z,9.29
2022-11-29T22:58:36.052Z,9.35
2022-11-29T23:01:07.451Z,9.27
2022-11-29T23:03:38.399Z,9.24
2022-11-29T23:06:12.533Z,9.29
2022-11-29T23:08:39.635Z,9.30
2022-11-29T23:11:08.389Z,9.30
2022-11-29T23:13:36.298Z,9.32
2022-11-29T23:16:03.889Z,9.26
2022-11-29T23:18:30.279Z,9.13
2022-11-29T23:21:10.877Z,9.07
2022-11-29T23:23:37.159Z,9.24
2022-11-29T23:26:04.735Z,9.23
2022-11-29T23:28:31.074Z,9.26
2022-11-29T23:30:58.590Z,9.24
2022-11-29T23:33:25.458Z,7.62
2022-11-29T23:35:59.104Z,9.35
2022-11-29T23:38:25.121Z,9.05
2022-11-29T23:40:51.120Z,9.12
2022-11-29T23:43:17.192Z,9.18
2022-11-29T23:45:43.338Z,8.55
2022-11-29T23:48:09.447Z,9.14
2022-11-29T23:50:35.493Z,9.05
2022-11-29T23:53:01.559Z,9.15
2022-11-29T23:55:27.714Z,8.65
2022-11-29T23:57:53.795Z,9.13
